sensor_id;sensor_type;location;lat;lon;timestamp;temperature;humidity
13610;DHT22;6876;50.788;4.940;2023-10-08T00:02:00;16.60;99.90
13610;DHT22;6876;50.788;4.940;2023-10-08T00:04:49;16.50;99.90
13610;DHT22;6876;50.788;4.940;2023-10-08T00:07:37;16.40;99.90
13610;DHT22;6876;50.788;4.940;2023-10-08T00:10:28;16.30;99.90
13610;DHT22;6876;50.788;4.940;2023-10-08T00:13:20;16.30;99.90
13610;DHT22;6876;50.788;4.940;2023-10-08T00:16:10;16.30;1.00
13610;DHT22;6876;50.788;4.940;2023-10-08T00:19:01;16.30;99.90
13610;DHT22;6876;50.788;4.940;2023-10-08T00:21:54;16.20;1.00
13610;DHT22;6876;50.788;4.940;2023-10-08T00:24:50;16.10;1.00
13610;DHT22;6876;50.788;4.940;2023-10-08T00:27:43;16.10;99.90
13610;DHT22;6876;50.788;4.940;2023-10-08T00:30:31;16.00;99.90
13610;DHT22;6876;50.788;4.940;2023-10-08T00:33:21;16.00;99.90
13610;DHT22;6876;50.788;4.940;2023-10-08T00:36:08;15.90;99.90
13610;DHT22;6876;50.788;4.940;2023-10-08T00:39:05;15.90;99.90
13610;DHT22;6876;50.788;4.940;2023-10-08T00:41:59;15.90;1.00
13610;DHT22;6876;50.788;4.940;2023-10-08T00:44:50;15.80;99.90
13610;DHT22;6876;50.788;4.940;2023-10-08T00:47:39;15.80;99.90
13610;DHT22;6876;50.788;4.940;2023-10-08T00:50:30;15.80;1.00
13610;DHT22;6876;50.788;4.940;2023-10-08T00:53:28;15.80;99.90
13610;DHT22;6876;50.788;4.940;2023-10-08T00:56:18;15.70;99.90
13610;DHT22;6876;50.788;4.940;2023-10-08T00:59:05;15.70;99.90
13610;DHT22;6876;50.788;4.940;2023-10-08T01:01:53;15.60;99.90
13610;DHT22;6876;50.788;4.940;2023-10-08T01:04:45;15.60;1.00
13610;DHT22;6876;50.788;4.940;2023-10-08T01:07:34;15.60;1.00
13610;DHT22;6876;50.788;4.940;2023-10-08T01:10:22;15.50;1.00
13610;DHT22;6876;50.788;4.940;2023-10-08T01:13:11;15.40;99.90
13610;DHT22;6876;50.788;4.940;2023-10-08T01:16:02;15.30;1.00
13610;DHT22;6876;50.788;4.940;2023-10-08T01:18:50;15.30;1.00
13610;DHT22;6876;50.788;4.940;2023-10-08T01:21:40;15.20;36.90
13610;DHT22;6876;50.788;4.940;2023-10-08T01:24:29;15.20;99.90
13610;DHT22;6876;50.788;4.940;2023-10-08T01:27:22;15.20;99.90
13610;DHT22;6876;50.788;4.940;2023-10-08T01:30:11;15.10;99.90
13610;DHT22;6876;50.788;4.940;2023-10-08T01:33:04;15.20;99.90
13610;DHT22;6876;50.788;4.940;2023-10-08T01:35:55;15.10;1.00
13610;DHT22;6876;50.788;4.940;2023-10-08T01:38:48;15.20;1.00
13610;DHT22;6876;50.788;4.940;2023-10-08T01:41:37;15.20;1.00
13610;DHT22;6876;50.788;4.940;2023-10-08T01:44:26;15.20;20.10
13610;DHT22;6876;50.788;4.940;2023-10-08T01:47:15;15.20;1.00
13610;DHT22;6876;50.788;4.940;2023-10-08T01:50:03;15.20;1.00
13610;DHT22;6876;50.788;4.940;2023-10-08T01:52:55;15.00;38.30
13610;DHT22;6876;50.788;4.940;2023-10-08T01:55:42;15.10;99.90
13610;DHT22;6876;50.788;4.940;2023-10-08T01:58:36;15.10;99.90
13610;DHT22;6876;50.788;4.940;2023-10-08T02:01:24;15.00;99.90
13610;DHT22;6876;50.788;4.940;2023-10-08T02:04:11;14.90;99.90
13610;DHT22;6876;50.788;4.940;2023-10-08T02:06:59;14.70;1.00
13610;DHT22;6876;50.788;4.940;2023-10-08T02:09:47;14.60;1.00
13610;DHT22;6876;50.788;4.940;2023-10-08T02:12:34;14.50;1.00
13610;DHT22;6876;50.788;4.940;2023-10-08T02:15:23;14.40;1.00
13610;DHT22;6876;50.788;4.940;2023-10-08T02:18:10;14.40;2.90
13610;DHT22;6876;50.788;4.940;2023-10-08T02:20:58;14.40;19.40
13610;DHT22;6876;50.788;4.940;2023-10-08T02:23:46;14.40;1.00
13610;DHT22;6876;50.788;4.940;2023-10-08T02:26:34;14.40;4.80
13610;DHT22;6876;50.788;4.940;2023-10-08T02:29:25;14.40;32.00
13610;DHT22;6876;50.788;4.940;2023-10-08T02:32:13;14.40;49.80
13610;DHT22;6876;50.788;4.940;2023-10-08T02:35:01;14.40;77.80
13610;DHT22;6876;50.788;4.940;2023-10-08T02:37:48;14.40;97.80
13610;DHT22;6876;50.788;4.940;2023-10-08T02:40:37;14.30;99.90
13610;DHT22;6876;50.788;4.940;2023-10-08T02:43:30;14.30;99.90
13610;DHT22;6876;50.788;4.940;2023-10-08T02:46:20;14.30;99.90
13610;DHT22;6876;50.788;4.940;2023-10-08T02:49:11;14.20;99.90
13610;DHT22;6876;50.788;4.940;2023-10-08T02:51:59;14.30;99.90
13610;DHT22;6876;50.788;4.940;2023-10-08T02:54:46;14.40;99.90
13610;DHT22;6876;50.788;4.940;2023-10-08T02:57:33;14.40;99.90
13610;DHT22;6876;50.788;4.940;2023-10-08T03:00:21;14.50;99.90
13610;DHT22;6876;50.788;4.940;2023-10-08T03:03:15;14.50;99.90
13610;DHT22;6876;50.788;4.940;2023-10-08T03:06:05;14.60;99.20
13610;DHT22;6876;50.788;4.940;2023-10-08T03:08:57;14.60;99.90
13610;DHT22;6876;50.788;4.940;2023-10-08T03:11:50;14.60;99.80
13610;DHT22;6876;50.788;4.940;2023-10-08T03:14:38;14.50;99.90
13610;DHT22;6876;50.788;4.940;2023-10-08T03:17:35;14.60;99.90
13610;DHT22;6876;50.788;4.940;2023-10-08T03:20:30;14.50;99.90
13610;DHT22;6876;50.788;4.940;2023-10-08T03:23:29;14.50;99.90
13610;DHT22;6876;50.788;4.940;2023-10-08T03:26:19;14.50;99.90
13610;DHT22;6876;50.788;4.940;2023-10-08T03:29:19;14.50;99.90
13610;DHT22;6876;50.788;4.940;2023-10-08T03:32:07;14.50;99.90
13610;DHT22;6876;50.788;4.940;2023-10-08T03:34:59;14.50;99.90
13610;DHT22;6876;50.788;4.940;2023-10-08T03:37:46;14.50;99.90
13610;DHT22;6876;50.788;4.940;2023-10-08T03:40:37;14.50;99.90
13610;DHT22;6876;50.788;4.940;2023-10-08T03:43:29;14.50;99.90
13610;DHT22;6876;50.788;4.940;2023-10-08T03:46:33;14.50;99.90
13610;DHT22;6876;50.788;4.940;2023-10-08T03:49:25;14.60;99.90
13610;DHT22;6876;50.788;4.940;2023-10-08T03:52:13;14.60;99.90
13610;DHT22;6876;50.788;4.940;2023-10-08T03:55:01;14.60;99.90
13610;DHT22;6876;50.788;4.940;2023-10-08T03:58:01;14.60;99.90
13610;DHT22;6876;50.788;4.940;2023-10-08T04:00:50;14.60;99.90
13610;DHT22;6876;50.788;4.940;2023-10-08T04:03:49;14.60;99.90
13610;DHT22;6876;50.788;4.940;2023-10-08T04:06:44;14.60;99.90
13610;DHT22;6876;50.788;4.940;2023-10-08T04:09:35;14.60;99.90
13610;DHT22;6876;50.788;4.940;2023-10-08T04:12:25;14.60;99.90
13610;DHT22;6876;50.788;4.940;2023-10-08T04:15:14;14.60;99.90
13610;DHT22;6876;50.788;4.940;2023-10-08T04:18:02;14.60;99.90
13610;DHT22;6876;50.788;4.940;2023-10-08T04:20:50;14.50;99.90
13610;DHT22;6876;50.788;4.940;2023-10-08T04:23:50;14.50;99.90
13610;DHT22;6876;50.788;4.940;2023-10-08T04:26:39;14.50;99.90
13610;DHT22;6876;50.788;4.940;2023-10-08T04:29:27;14.50;99.90
13610;DHT22;6876;50.788;4.940;2023-10-08T04:32:19;14.50;99.90
13610;DHT22;6876;50.788;4.940;2023-10-08T04:35:10;14.50;99.90
13610;DHT22;6876;50.788;4.940;2023-10-08T04:38:02;14.40;99.90
13610;DHT22;6876;50.788;4.940;2023-10-08T04:40:50;14.40;99.90
13610;DHT22;6876;50.788;4.940;2023-10-08T04:43:38;14.30;99.90
13610;DHT22;6876;50.788;4.940;2023-10-08T04:46:28;14.30;99.90
13610;DHT22;6876;50.788;4.940;2023-10-08T04:49:34;14.30;99.90
13610;DHT22;6876;50.788;4.940;2023-10-08T04:52:24;14.30;99.90
13610;DHT22;6876;50.788;4.940;2023-10-08T04:55:14;14.30;99.90
13610;DHT22;6876;50.788;4.940;2023-10-08T04:58:06;14.20;99.90
13610;DHT22;6876;50.788;4.940;2023-10-08T05:01:05;14.20;99.90
13610;DHT22;6876;50.788;4.940;2023-10-08T05:04:13;14.10;99.90
13610;DHT22;6876;50.788;4.940;2023-10-08T05:07:20;14.10;1.00
13610;DHT22;6876;50.788;4.940;2023-10-08T05:10:26;14.10;1.00
13610;DHT22;6876;50.788;4.940;2023-10-08T05:13:31;14.10;1.00
13610;DHT22;6876;50.788;4.940;2023-10-08T05:16:31;14.00;1.00
13610;DHT22;6876;50.788;4.940;2023-10-08T05:19:29;14.00;1.00
13610;DHT22;6876;50.788;4.940;2023-10-08T05:22:57;13.90;1.00
13610;DHT22;6876;50.788;4.940;2023-10-08T05:25:53;13.80;1.00
13610;DHT22;6876;50.788;4.940;2023-10-08T05:28:44;13.70;1.00
13610;DHT22;6876;50.788;4.940;2023-10-08T05:31:46;13.70;1.00
13610;DHT22;6876;50.788;4.940;2023-10-08T05:34:39;13.70;1.00
13610;DHT22;6876;50.788;4.940;2023-10-08T05:37:37;13.70;1.00
13610;DHT22;6876;50.788;4.940;2023-10-08T05:40:29;13.60;1.00
13610;DHT22;6876;50.788;4.940;2023-10-08T05:43:26;13.70;1.00
13610;DHT22;6876;50.788;4.940;2023-10-08T05:46:34;13.70;1.00
13610;DHT22;6876;50.788;4.940;2023-10-08T05:49:37;13.80;1.00
13610;DHT22;6876;50.788;4.940;2023-10-08T05:52:40;13.80;1.00
13610;DHT22;6876;50.788;4.940;2023-10-08T05:55:37;13.70;1.00
13610;DHT22;6876;50.788;4.940;2023-10-08T05:58:34;13.70;1.00
13610;DHT22;6876;50.788;4.940;2023-10-08T06:01:31;13.70;1.00
13610;DHT22;6876;50.788;4.940;2023-10-08T06:04:26;13.70;1.00
13610;DHT22;6876;50.788;4.940;2023-10-08T06:07:40;13.80;1.00
13610;DHT22;6876;50.788;4.940;2023-10-08T06:10:34;13.80;1.00
13610;DHT22;6876;50.788;4.940;2023-10-08T06:13:30;13.80;1.00
13610;DHT22;6876;50.788;4.940;2023-10-08T06:16:32;13.80;1.00
13610;DHT22;6876;50.788;4.940;2023-10-08T06:19:27;13.80;1.00
13610;DHT22;6876;50.788;4.940;2023-10-08T06:22:15;14.00;1.00
13610;DHT22;6876;50.788;4.940;2023-10-08T06:25:02;14.10;1.00
13610;DHT22;6876;50.788;4.940;2023-10-08T06:28:03;14.10;1.00
13610;DHT22;6876;50.788;4.940;2023-10-08T06:30:56;14.10;1.00
13610;DHT22;6876;50.788;4.940;2023-10-08T06:33:46;14.20;1.00
13610;DHT22;6876;50.788;4.940;2023-10-08T06:36:34;14.30;1.00
13610;DHT22;6876;50.788;4.940;2023-10-08T06:39:22;14.40;1.00
13610;DHT22;6876;50.788;4.940;2023-10-08T06:42:11;14.50;1.00
13610;DHT22;6876;50.788;4.940;2023-10-08T06:45:00;14.50;1.00
13610;DHT22;6876;50.788;4.940;2023-10-08T06:47:47;14.60;99.90
13610;DHT22;6876;50.788;4.940;2023-10-08T06:50:36;14.80;99.90
13610;DHT22;6876;50.788;4.940;2023-10-08T06:53:24;14.90;99.90
13610;DHT22;6876;50.788;4.940;2023-10-08T06:56:11;15.10;99.90
13610;DHT22;6876;50.788;4.940;2023-10-08T06:58:59;15.10;99.90
13610;DHT22;6876;50.788;4.940;2023-10-08T07:01:47;15.20;99.90
13610;DHT22;6876;50.788;4.940;2023-10-08T07:04:37;15.40;99.90
13610;DHT22;6876;50.788;4.940;2023-10-08T07:07:27;15.50;99.90
13610;DHT22;6876;50.788;4.940;2023-10-08T07:10:18;15.60;99.90
13610;DHT22;6876;50.788;4.940;2023-10-08T07:13:06;15.70;99.90
13610;DHT22;6876;50.788;4.940;2023-10-08T07:15:53;15.80;99.90
13610;DHT22;6876;50.788;4.940;2023-10-08T07:18:41;15.90;98.20
13610;DHT22;6876;50.788;4.940;2023-10-08T07:21:36;16.10;85.40
13610;DHT22;6876;50.788;4.940;2023-10-08T07:24:34;16.20;1.00
13610;DHT22;6876;50.788;4.940;2023-10-08T07:27:23;16.40;1.00
13610;DHT22;6876;50.788;4.940;2023-10-08T07:30:16;16.40;1.00
13610;DHT22;6876;50.788;4.940;2023-10-08T07:33:12;16.50;1.00
13610;DHT22;6876;50.788;4.940;2023-10-08T07:36:04;16.70;1.00
13610;DHT22;6876;50.788;4.940;2023-10-08T07:39:00;17.40;1.00
13610;DHT22;6876;50.788;4.940;2023-10-08T07:41:55;18.70;99.90
13610;DHT22;6876;50.788;4.940;2023-10-08T07:44:42;19.50;1.00
13610;DHT22;6876;50.788;4.940;2023-10-08T07:47:31;20.30;1.00
13610;DHT22;6876;50.788;4.940;2023-10-08T07:50:18;21.00;1.00
13610;DHT22;6876;50.788;4.940;2023-10-08T07:53:06;21.50;1.00
13610;DHT22;6876;50.788;4.940;2023-10-08T07:55:53;22.00;1.00
13610;DHT22;6876;50.788;4.940;2023-10-08T07:58:42;22.60;99.90
13610;DHT22;6876;50.788;4.940;2023-10-08T08:01:29;23.10;45.50
13610;DHT22;6876;50.788;4.940;2023-10-08T08:04:19;23.30;1.00
13610;DHT22;6876;50.788;4.940;2023-10-08T08:07:09;23.40;99.90
13610;DHT22;6876;50.788;4.940;2023-10-08T08:10:01;23.50;99.90
13610;DHT22;6876;50.788;4.940;2023-10-08T08:12:57;23.40;99.90
13610;DHT22;6876;50.788;4.940;2023-10-08T08:15:46;23.50;99.90
13610;DHT22;6876;50.788;4.940;2023-10-08T08:18:37;23.70;99.90
13610;DHT22;6876;50.788;4.940;2023-10-08T08:21:24;23.80;99.90
13610;DHT22;6876;50.788;4.940;2023-10-08T08:24:12;24.00;99.90
13610;DHT22;6876;50.788;4.940;2023-10-08T08:27:07;24.10;99.90
13610;DHT22;6876;50.788;4.940;2023-10-08T08:29:58;24.30;99.90
13610;DHT22;6876;50.788;4.940;2023-10-08T08:32:57;24.50;99.90
13610;DHT22;6876;50.788;4.940;2023-10-08T08:35:46;24.70;99.90
13610;DHT22;6876;50.788;4.940;2023-10-08T08:38:34;24.60;99.90
13610;DHT22;6876;50.788;4.940;2023-10-08T08:41:22;24.40;99.90
13610;DHT22;6876;50.788;4.940;2023-10-08T08:44:10;24.50;99.90
13610;DHT22;6876;50.788;4.940;2023-10-08T08:47:00;25.20;99.90
13610;DHT22;6876;50.788;4.940;2023-10-08T08:49:52;25.20;99.90
13610;DHT22;6876;50.788;4.940;2023-10-08T08:52:41;25.70;99.90
13610;DHT22;6876;50.788;4.940;2023-10-08T08:55:32;25.60;99.90
13610;DHT22;6876;50.788;4.940;2023-10-08T08:58:21;26.00;93.60
13610;DHT22;6876;50.788;4.940;2023-10-08T09:01:13;25.80;85.40
13610;DHT22;6876;50.788;4.940;2023-10-08T09:04:02;26.10;50.90
13610;DHT22;6876;50.788;4.940;2023-10-08T09:06:52;26.60;15.90
13610;DHT22;6876;50.788;4.940;2023-10-08T09:09:40;27.00;1.00
13610;DHT22;6876;50.788;4.940;2023-10-08T09:12:27;26.90;1.00
13610;DHT22;6876;50.788;4.940;2023-10-08T09:15:16;27.00;1.00
13610;DHT22;6876;50.788;4.940;2023-10-08T09:18:04;26.70;1.00
13610;DHT22;6876;50.788;4.940;2023-10-08T09:20:52;26.70;1.00
13610;DHT22;6876;50.788;4.940;2023-10-08T09:23:43;26.50;1.00
13610;DHT22;6876;50.788;4.940;2023-10-08T09:26:33;26.40;1.00
13610;DHT22;6876;50.788;4.940;2023-10-08T09:29:23;26.10;1.00
13610;DHT22;6876;50.788;4.940;2023-10-08T09:32:12;25.40;20.60
13610;DHT22;6876;50.788;4.940;2023-10-08T09:35:00;25.30;60.00
13610;DHT22;6876;50.788;4.940;2023-10-08T09:37:48;25.10;99.90
13610;DHT22;6876;50.788;4.940;2023-10-08T09:40:38;24.90;99.90
13610;DHT22;6876;50.788;4.940;2023-10-08T09:43:27;24.50;99.90
13610;DHT22;6876;50.788;4.940;2023-10-08T09:46:18;24.60;99.90
13610;DHT22;6876;50.788;4.940;2023-10-08T09:49:05;25.00;99.90
13610;DHT22;6876;50.788;4.940;2023-10-08T09:51:55;25.80;99.90
13610;DHT22;6876;50.788;4.940;2023-10-08T09:54:44;26.40;99.90
13610;DHT22;6876;50.788;4.940;2023-10-08T09:57:39;27.30;94.30
13610;DHT22;6876;50.788;4.940;2023-10-08T10:00:29;27.50;32.70
13610;DHT22;6876;50.788;4.940;2023-10-08T10:03:18;26.80;31.10
13610;DHT22;6876;50.788;4.940;2023-10-08T10:06:12;27.50;42.30
13610;DHT22;6876;50.788;4.940;2023-10-08T10:09:00;28.60;27.30
13610;DHT22;6876;50.788;4.940;2023-10-08T10:11:48;28.90;1.00
13610;DHT22;6876;50.788;4.940;2023-10-08T10:14:45;29.40;1.00
13610;DHT22;6876;50.788;4.940;2023-10-08T10:17:36;29.40;1.00
13610;DHT22;6876;50.788;4.940;2023-10-08T10:20:23;29.10;1.00
13610;DHT22;6876;50.788;4.940;2023-10-08T10:23:36;28.40;1.00
13610;DHT22;6876;50.788;4.940;2023-10-08T10:26:27;27.60;1.00
13610;DHT22;6876;50.788;4.940;2023-10-08T10:29:22;26.90;1.00
13610;DHT22;6876;50.788;4.940;2023-10-08T10:32:14;26.50;7.00
13610;DHT22;6876;50.788;4.940;2023-10-08T10:35:03;26.40;62.70
13610;DHT22;6876;50.788;4.940;2023-10-08T10:37:52;26.20;94.00
13610;DHT22;6876;50.788;4.940;2023-10-08T10:40:41;25.60;99.90
13610;DHT22;6876;50.788;4.940;2023-10-08T10:43:29;25.20;99.90
13610;DHT22;6876;50.788;4.940;2023-10-08T10:46:19;25.20;99.90
13610;DHT22;6876;50.788;4.940;2023-10-08T10:49:18;25.00;99.90
13610;DHT22;6876;50.788;4.940;2023-10-08T10:52:07;25.10;99.90
13610;DHT22;6876;50.788;4.940;2023-10-08T10:55:05;25.20;99.90
13610;DHT22;6876;50.788;4.940;2023-10-08T10:58:07;25.30;99.90
13610;DHT22;6876;50.788;4.940;2023-10-08T11:01:01;25.20;99.90
13610;DHT22;6876;50.788;4.940;2023-10-08T11:03:53;25.10;99.90
13610;DHT22;6876;50.788;4.940;2023-10-08T11:06:46;25.10;99.90
13610;DHT22;6876;50.788;4.940;2023-10-08T11:09:34;25.00;99.90
13610;DHT22;6876;50.788;4.940;2023-10-08T11:12:25;24.90;99.90
13610;DHT22;6876;50.788;4.940;2023-10-08T11:15:29;24.80;99.90
13610;DHT22;6876;50.788;4.940;2023-10-08T11:18:25;24.90;99.90
13610;DHT22;6876;50.788;4.940;2023-10-08T11:21:14;24.80;99.90
13610;DHT22;6876;50.788;4.940;2023-10-08T11:24:03;24.70;99.90
13610;DHT22;6876;50.788;4.940;2023-10-08T11:26:55;25.00;99.90
13610;DHT22;6876;50.788;4.940;2023-10-08T11:30:01;24.90;99.90
13610;DHT22;6876;50.788;4.940;2023-10-08T11:32:57;24.90;99.90
13610;DHT22;6876;50.788;4.940;2023-10-08T11:35:58;24.70;99.90
13610;DHT22;6876;50.788;4.940;2023-10-08T11:38:46;24.60;99.90
13610;DHT22;6876;50.788;4.940;2023-10-08T11:41:37;24.40;99.90
13610;DHT22;6876;50.788;4.940;2023-10-08T11:44:35;24.40;99.90
13610;DHT22;6876;50.788;4.940;2023-10-08T11:47:23;24.40;99.90
13610;DHT22;6876;50.788;4.940;2023-10-08T11:50:11;24.50;99.90
13610;DHT22;6876;50.788;4.940;2023-10-08T11:53:03;24.50;99.90
13610;DHT22;6876;50.788;4.940;2023-10-08T11:55:51;24.50;99.90
13610;DHT22;6876;50.788;4.940;2023-10-08T11:58:44;24.50;99.90
13610;DHT22;6876;50.788;4.940;2023-10-08T12:01:31;24.50;99.90
13610;DHT22;6876;50.788;4.940;2023-10-08T12:04:21;24.40;99.90
13610;DHT22;6876;50.788;4.940;2023-10-08T12:07:09;24.20;99.90
13610;DHT22;6876;50.788;4.940;2023-10-08T12:09:56;24.30;99.90
13610;DHT22;6876;50.788;4.940;2023-10-08T12:12:43;24.20;99.90
13610;DHT22;6876;50.788;4.940;2023-10-08T12:15:33;24.20;99.90
13610;DHT22;6876;50.788;4.940;2023-10-08T12:18:24;24.20;99.90
13610;DHT22;6876;50.788;4.940;2023-10-08T12:21:11;24.30;99.90
13610;DHT22;6876;50.788;4.940;2023-10-08T12:24:01;24.10;99.90
13610;DHT22;6876;50.788;4.940;2023-10-08T12:26:51;24.00;99.90
13610;DHT22;6876;50.788;4.940;2023-10-08T12:29:38;24.20;99.90
13610;DHT22;6876;50.788;4.940;2023-10-08T12:32:27;24.30;99.90
13610;DHT22;6876;50.788;4.940;2023-10-08T12:35:16;24.30;99.90
13610;DHT22;6876;50.788;4.940;2023-10-08T12:38:06;24.20;99.90
13610;DHT22;6876;50.788;4.940;2023-10-08T12:40:54;24.10;99.90
13610;DHT22;6876;50.788;4.940;2023-10-08T12:43:43;24.00;99.90
13610;DHT22;6876;50.788;4.940;2023-10-08T12:46:32;24.00;1.00
13610;DHT22;6876;50.788;4.940;2023-10-08T12:49:21;24.10;99.90
13610;DHT22;6876;50.788;4.940;2023-10-08T12:52:08;24.10;99.90
13610;DHT22;6876;50.788;4.940;2023-10-08T12:54:58;24.10;99.90
13610;DHT22;6876;50.788;4.940;2023-10-08T12:57:51;24.10;99.90
13610;DHT22;6876;50.788;4.940;2023-10-08T13:00:41;24.10;99.90
13610;DHT22;6876;50.788;4.940;2023-10-08T13:03:29;24.20;99.90
13610;DHT22;6876;50.788;4.940;2023-10-08T13:06:19;24.30;99.90
13610;DHT22;6876;50.788;4.940;2023-10-08T13:09:08;24.30;99.90
13610;DHT22;6876;50.788;4.940;2023-10-08T13:11:58;24.30;99.90
13610;DHT22;6876;50.788;4.940;2023-10-08T13:14:46;24.20;99.90
13610;DHT22;6876;50.788;4.940;2023-10-08T13:17:34;24.10;99.90
13610;DHT22;6876;50.788;4.940;2023-10-08T13:20:21;24.00;99.90
13610;DHT22;6876;50.788;4.940;2023-10-08T13:23:13;23.90;99.90
13610;DHT22;6876;50.788;4.940;2023-10-08T13:26:00;23.90;99.90
13610;DHT22;6876;50.788;4.940;2023-10-08T13:28:50;24.00;99.90
13610;DHT22;6876;50.788;4.940;2023-10-08T13:31:38;24.00;99.90
13610;DHT22;6876;50.788;4.940;2023-10-08T13:34:25;23.90;99.90
13610;DHT22;6876;50.788;4.940;2023-10-08T13:37:13;23.80;99.90
13610;DHT22;6876;50.788;4.940;2023-10-08T13:40:03;23.80;99.90
13610;DHT22;6876;50.788;4.940;2023-10-08T13:42:52;23.80;99.90
13610;DHT22;6876;50.788;4.940;2023-10-08T13:45:39;23.80;99.90
13610;DHT22;6876;50.788;4.940;2023-10-08T13:48:27;23.80;99.90
13610;DHT22;6876;50.788;4.940;2023-10-08T13:51:16;23.70;99.90
13610;DHT22;6876;50.788;4.940;2023-10-08T13:54:06;23.80;99.90
13610;DHT22;6876;50.788;4.940;2023-10-08T13:56:57;23.90;99.90
13610;DHT22;6876;50.788;4.940;2023-10-08T13:59:44;23.80;99.90
13610;DHT22;6876;50.788;4.940;2023-10-08T14:02:32;23.80;99.90
13610;DHT22;6876;50.788;4.940;2023-10-08T14:05:21;23.90;99.90
13610;DHT22;6876;50.788;4.940;2023-10-08T14:08:10;23.90;99.90
13610;DHT22;6876;50.788;4.940;2023-10-08T14:11:01;23.90;99.90
13610;DHT22;6876;50.788;4.940;2023-10-08T14:13:51;23.90;99.90
13610;DHT22;6876;50.788;4.940;2023-10-08T14:16:40;24.00;99.90
13610;DHT22;6876;50.788;4.940;2023-10-08T14:19:29;23.90;99.90
13610;DHT22;6876;50.788;4.940;2023-10-08T14:22:24;24.00;99.90
13610;DHT22;6876;50.788;4.940;2023-10-08T14:25:13;24.00;99.90
13610;DHT22;6876;50.788;4.940;2023-10-08T14:28:01;24.10;99.90
13610;DHT22;6876;50.788;4.940;2023-10-08T14:30:54;24.00;99.90
13610;DHT22;6876;50.788;4.940;2023-10-08T14:33:43;24.10;99.90
13610;DHT22;6876;50.788;4.940;2023-10-08T14:36:41;24.20;99.90
13610;DHT22;6876;50.788;4.940;2023-10-08T14:39:46;24.20;99.90
13610;DHT22;6876;50.788;4.940;2023-10-08T14:42:51;24.20;99.90
13610;DHT22;6876;50.788;4.940;2023-10-08T14:45:42;24.20;99.90
13610;DHT22;6876;50.788;4.940;2023-10-08T14:48:34;24.20;99.90
13610;DHT22;6876;50.788;4.940;2023-10-08T14:51:22;24.20;99.90
13610;DHT22;6876;50.788;4.940;2023-10-08T14:54:10;24.20;99.90
13610;DHT22;6876;50.788;4.940;2023-10-08T14:56:58;24.20;99.90
13610;DHT22;6876;50.788;4.940;2023-10-08T14:59:45;24.10;99.90
13610;DHT22;6876;50.788;4.940;2023-10-08T15:02:34;24.00;99.90
13610;DHT22;6876;50.788;4.940;2023-10-08T15:05:24;23.90;99.90
13610;DHT22;6876;50.788;4.940;2023-10-08T15:08:12;23.80;99.90
13610;DHT22;6876;50.788;4.940;2023-10-08T15:11:00;23.80;99.90
13610;DHT22;6876;50.788;4.940;2023-10-08T15:13:49;23.70;99.90
13610;DHT22;6876;50.788;4.940;2023-10-08T15:16:39;23.70;99.90
13610;DHT22;6876;50.788;4.940;2023-10-08T15:19:27;23.70;99.90
13610;DHT22;6876;50.788;4.940;2023-10-08T15:22:16;23.70;99.90
13610;DHT22;6876;50.788;4.940;2023-10-08T15:25:04;23.80;99.90
13610;DHT22;6876;50.788;4.940;2023-10-08T15:27:52;23.70;99.90
13610;DHT22;6876;50.788;4.940;2023-10-08T15:30:39;23.60;99.90
13610;DHT22;6876;50.788;4.940;2023-10-08T15:33:28;23.60;99.90
13610;DHT22;6876;50.788;4.940;2023-10-08T15:36:15;23.50;99.90
13610;DHT22;6876;50.788;4.940;2023-10-08T15:39:04;23.50;99.90
13610;DHT22;6876;50.788;4.940;2023-10-08T15:41:55;23.50;99.90
13610;DHT22;6876;50.788;4.940;2023-10-08T15:44:43;23.50;99.90
13610;DHT22;6876;50.788;4.940;2023-10-08T15:47:31;23.30;99.90
13610;DHT22;6876;50.788;4.940;2023-10-08T15:50:19;23.30;99.90
13610;DHT22;6876;50.788;4.940;2023-10-08T15:53:06;23.20;99.90
13610;DHT22;6876;50.788;4.940;2023-10-08T15:55:55;23.10;99.90
13610;DHT22;6876;50.788;4.940;2023-10-08T15:58:42;23.10;99.90
13610;DHT22;6876;50.788;4.940;2023-10-08T16:01:30;23.00;99.90
13610;DHT22;6876;50.788;4.940;2023-10-08T16:04:18;22.90;99.90
13610;DHT22;6876;50.788;4.940;2023-10-08T16:07:06;22.90;99.90
13610;DHT22;6876;50.788;4.940;2023-10-08T16:09:53;22.80;1.00
13610;DHT22;6876;50.788;4.940;2023-10-08T16:12:42;22.70;99.90
13610;DHT22;6876;50.788;4.940;2023-10-08T16:15:30;22.60;99.90
13610;DHT22;6876;50.788;4.940;2023-10-08T16:18:17;22.50;1.00
13610;DHT22;6876;50.788;4.940;2023-10-08T16:21:06;22.50;1.00
13610;DHT22;6876;50.788;4.940;2023-10-08T16:23:55;22.40;99.90
13610;DHT22;6876;50.788;4.940;2023-10-08T16:26:44;22.30;1.00
13610;DHT22;6876;50.788;4.940;2023-10-08T16:29:33;22.20;99.90
13610;DHT22;6876;50.788;4.940;2023-10-08T16:32:22;22.10;1.00
13610;DHT22;6876;50.788;4.940;2023-10-08T16:35:09;22.00;99.90
13610;DHT22;6876;50.788;4.940;2023-10-08T16:37:58;21.80;99.90
13610;DHT22;6876;50.788;4.940;2023-10-08T16:40:46;21.70;1.00
13610;DHT22;6876;50.788;4.940;2023-10-08T16:43:33;21.60;99.90
13610;DHT22;6876;50.788;4.940;2023-10-08T16:46:22;21.50;99.90
13610;DHT22;6876;50.788;4.940;2023-10-08T16:49:10;21.40;1.00
13610;DHT22;6876;50.788;4.940;2023-10-08T16:51:57;21.30;99.90
13610;DHT22;6876;50.788;4.940;2023-10-08T16:54:46;21.20;99.90
13610;DHT22;6876;50.788;4.940;2023-10-08T16:57:33;21.00;99.90
13610;DHT22;6876;50.788;4.940;2023-10-08T17:00:21;20.90;99.90
13610;DHT22;6876;50.788;4.940;2023-10-08T17:03:11;20.80;1.00
13610;DHT22;6876;50.788;4.940;2023-10-08T17:05:59;20.70;99.90
13610;DHT22;6876;50.788;4.940;2023-10-08T17:08:53;20.60;1.00
13610;DHT22;6876;50.788;4.940;2023-10-08T17:11:41;20.50;1.00
13610;DHT22;6876;50.788;4.940;2023-10-08T17:14:31;20.50;1.00
13610;DHT22;6876;50.788;4.940;2023-10-08T17:17:18;20.30;1.00
13610;DHT22;6876;50.788;4.940;2023-10-08T17:20:08;20.20;1.00
13610;DHT22;6876;50.788;4.940;2023-10-08T17:22:56;20.10;1.00
13610;DHT22;6876;50.788;4.940;2023-10-08T17:25:43;20.00;99.90
13610;DHT22;6876;50.788;4.940;2023-10-08T17:28:31;20.00;99.90
13610;DHT22;6876;50.788;4.940;2023-10-08T17:31:18;19.80;99.90
13610;DHT22;6876;50.788;4.940;2023-10-08T17:34:06;19.70;1.00
13610;DHT22;6876;50.788;4.940;2023-10-08T17:36:54;19.60;1.00
13610;DHT22;6876;50.788;4.940;2023-10-08T17:39:44;19.60;1.00
13610;DHT22;6876;50.788;4.940;2023-10-08T17:42:31;19.50;1.00
13610;DHT22;6876;50.788;4.940;2023-10-08T17:45:19;19.40;1.00
13610;DHT22;6876;50.788;4.940;2023-10-08T17:48:10;19.40;1.00
13610;DHT22;6876;50.788;4.940;2023-10-08T17:50:58;19.20;56.70
13610;DHT22;6876;50.788;4.940;2023-10-08T17:53:47;19.00;99.90
13610;DHT22;6876;50.788;4.940;2023-10-08T17:56:35;18.90;99.90
13610;DHT22;6876;50.788;4.940;2023-10-08T17:59:25;18.80;99.90
13610;DHT22;6876;50.788;4.940;2023-10-08T18:02:13;18.70;99.90
13610;DHT22;6876;50.788;4.940;2023-10-08T18:05:00;18.60;99.90
13610;DHT22;6876;50.788;4.940;2023-10-08T18:07:50;18.50;99.90
13610;DHT22;6876;50.788;4.940;2023-10-08T18:10:39;18.40;99.90
13610;DHT22;6876;50.788;4.940;2023-10-08T18:13:26;18.30;99.90
13610;DHT22;6876;50.788;4.940;2023-10-08T18:16:16;18.20;99.90
13610;DHT22;6876;50.788;4.940;2023-10-08T18:19:04;18.10;99.90
13610;DHT22;6876;50.788;4.940;2023-10-08T18:21:53;18.10;1.00